Strum, WI (54770)

12:14 AM CDT on July 24, 2019 (GMT -0500)
Eleva | | Change Station
Active Advisory: Flood Warning

Elev 866 ft 44.58 °N, 91.47 °W | Updated 34 seconds ago

Clear
Clear
67.5 °F
Feels Like 67.5 °F
N
0
Wind Variable Wind from WSW
Gusts 0.0 mph

Today
High -- | Low -- °F
--% Chance of Precip.
Yesterday
High -- | Low -- °F
Precip. -- in
Pressure 30.13 in
Visibility 10.0 miles
Clouds Clear
Dew Point 60 °F
Humidity 78%
Rainfall 0.00 in
Snow Depth Not available.
5:43 AM 8:40 PM
Waning Gibbous, 58% visible
METAR KEAU 240456Z 21003KT 10SM CLR 18/15 A3014 RMK AO2 SLP203 T01830150
Pressure 30.13 in
Visibility 10.0 miles
Clouds Clear
Dew Point 60 °F
Humidity 78%
Rainfall 0.00 in
Snow Depth Not available.
5:43 AM 8:40 PM
Waning Gibbous, 58% visible
METAR KEAU 240456Z 21003KT 10SM CLR 18/15 A3014 RMK AO2 SLP203 T01830150

Get Your Daily Forecast Email!

Thanks for signing up!

Be on the lookout for a verification email in your inbox.

You'll start receiving severe weather alerts in your inbox..

×

10-Day Weather Forecast

Almanac

Astronomy

Jul. 24, 2019 Rise Set
Actual Time
Civil Twilight
Nautical Twilight
Astronomical Twilight
Moon
Length of Visible Light
Length of Day
Tomorrow will be .
, % of the Moon is Illuminated

Today's Extremes

State Highs State Lows

Community

WunderPhotos

Category 6

Welcome to Category 6. This is the collective home for Weather Underground's featured writeups by Dr. Jeff Masters (right), Bob Henson (left), Chris Burt, and other regular contributors.

Nearby

Air Quality

  Air Quality AQ Index Pollutant
Not available.

Snow Depth

Station Depth Elevation

Earthquake Activity

City Distance Mag. Time & Date
Minimum magnitude displayed is 2.5.

Coastal Water Temperatures

Place Temperature

Stations

Nearby Weather Stations

Station Location Temp. Windchill Dew Point Humidity Wind Precip. Elev Updated Type
                   

Watches & Warnings

Flood Warning
Issued: 7:34 PM CDT Jul. 23, 2019 – National Weather Service

The Flood Warning continues for
the Black River near Galesville.
* Until Wednesday afternoon... or until the warning is cancelled.
* At 6:45 PM Tuesday the stage was 12.2 feet.
* Flood stage is 12.0 feet.
* Minor flooding is occurring.
* Forecast... the river will continue to fall... dropping below flood
stage by this evening.
* Impact... at 12.0 feet... flooding mainly impacts wildlands and
agricultural pasture land. However the approach to the south end of
the County Road vv bridge over the Black River may be flooded.


Lat... Lon 4411 9097 4393 9135 4395 9138 4407 9133 4413 9100


Mea